Time;durP1;ratioP1;P1;durP2;ratioP2;P2;SDS_P1;SDS_P2;PMS_P1;PMS_P2;Temp;Humidity;BMP_temperature;BMP_pressure;BME280_temperature;BME280_humidity;BME280_pressure;Samples;Min_cycle;Max_cycle;Signal;HPM_P1;HPM_P2
2022/08/03 00:01:17;;;;;;;;;;;;;;;;;;5044834;28;20291;-56
2022/08/03 00:03:43;;;;;;;;;;;;;;;;;;5045205;28;19924;-56
2022/08/03 00:06:09;;;;;;;;;;;;;;;;;;5045054;28;19925;-57
2022/08/03 00:08:35;;;;;;;;;;;;;;;;;;5045558;28;19978;-56
2022/08/03 00:11:01;;;;;;;;;;;;;;;;;;5044617;28;20378;-56
2022/08/03 00:13:27;;;;;;;;;;;;;;;;;;5044479;28;20011;-56
2022/08/03 00:15:53;;;;;;;;;;;;;;;;;;5044426;28;19924;-56
2022/08/03 00:18:19;;;;;;;;;;;;;;;;;;5044674;28;19931;-56
2022/08/03 00:20:45;;;;;;;;;;;;;;;;;;5044744;28;19925;-56
2022/08/03 00:23:11;;;;;;;;;;;;;;;;;;5044835;28;20377;-57
2022/08/03 00:25:37;;;;;;;;;;;;;;;;;;5044794;28;20027;-56
2022/08/03 00:28:03;;;;;;;;;;;;;;;;;;5044703;28;20020;-56
2022/08/03 00:30:29;;;;;;;;;;;;;;;;;;5043896;28;20353;-56
2022/08/03 00:32:55;;;;;;;;;;;;;;;;;;5026483;28;20388;-56
2022/08/03 00:35:21;;;;;;;;;;;;;;;;;;5044522;28;19983;-56
2022/08/03 00:37:47;;;;;;;;;;;;;;;;;;5044233;28;19960;-56
2022/08/03 00:40:13;;;;;;;;;;;;;;;;;;5043804;28;20375;-57
2022/08/03 00:42:39;;;;;;;;;;;;;;;;;;5044439;28;19925;-57
2022/08/03 00:45:05;;;;;;;;;;;;;;;;;;5044321;28;19942;-56
2022/08/03 00:47:31;;;;;;;;;;;;;;;;;;5044196;28;20326;-56
2022/08/03 00:49:57;;;;;;;;;;;;;;;;;;5044353;28;19961;-56
2022/08/03 00:52:23;;;;;;;;;;;;;;;;;;5043784;28;20011;-56
2022/08/03 00:54:49;;;;;;;;;;;;;;;;;;5043159;28;20256;-56
2022/08/03 00:57:15;;;;;;;;;;;;;;;;;;5043810;28;19924;-56
2022/08/03 00:59:41;;;;;;;;;;;;;;;;;;5043192;28;19936;-56
2022/08/03 01:02:07;;;;;;;;;;;;;;;;;;5044746;28;19925;-56
2022/08/03 01:04:33;;;;;;;;;;;;;;;;;;5044096;28;19975;-56
2022/08/03 01:07:00;;;;;;;;;;;;;;;;;;5043634;28;19936;-56
2022/08/03 01:09:27;;;;;;;;;;;;;;;;;;5042956;28;21345;-56
2022/08/03 01:11:53;;;;;;;;;;;;;;;;;;5043943;28;19996;-56
2022/08/03 01:14:19;;;;;;;;;;;;;;;;;;5043046;28;19924;-56
2022/08/03 01:16:46;;;;;;;;;;;;;;;;;;5044044;28;19951;-56
2022/08/03 01:19:12;;;;;;;;;;;;;;;;;;5044001;28;19956;-56
2022/08/03 01:21:38;;;;;;;;;;;;;;;;;;5043823;28;19978;-57
2022/08/03 01:24:04;;;;;;;;;;;;;;;;;;5044241;28;19924;-56
2022/08/03 01:26:30;;;;;;;;;;;;;;;;;;5043571;28;19924;-56
2022/08/03 01:28:57;;;;;;;;;;;;;;;;;;5043160;28;20378;-56
2022/08/03 01:31:23;;;;;;;;;;;;;;;;;;5043956;28;19978;-56
2022/08/03 01:33:49;;;;;;;;;;;;;;;;;;5043433;28;19925;-56
2022/08/03 01:36:14;;;;;;;;;;;;;;;;;;5043280;28;19947;-56
2022/08/03 01:38:41;;;;;;;;;;;;;;;;;;5044183;28;19920;-56
2022/08/03 01:41:07;;;;;;;;;;;;;;;;;;5044120;28;20445;-56
2022/08/03 01:43:33;;;;;;;;;;;;;;;;;;5024916;28;19983;-56
2022/08/03 01:45:59;;;;;;;;;;;;;;;;;;5043925;28;19924;-56
2022/08/03 01:48:25;;;;;;;;;;;;;;;;;;5043597;28;19977;-56
2022/08/03 01:50:51;;;;;;;;;;;;;;;;;;5043384;28;20042;-56
2022/08/03 01:53:17;;;;;;;;;;;;;;;;;;5043413;28;19952;-56
2022/08/03 01:55:43;;;;;;;;;;;;;;;;;;5043494;28;20063;-57
2022/08/03 01:58:09;;;;;;;;;;;;;;;;;;5043817;28;19962;-57
2022/08/03 02:00:36;;;;;;;;;;;;;;;;;;5043435;28;19996;-56
2022/08/03 02:03:02;;;;;;;;;;;;;;;;;;5043740;28;19932;-56
2022/08/03 02:05:28;;;;;;;;;;;;;;;;;;5042617;28;19917;-56
2022/08/03 02:07:54;;;;;;;;;;;;;;;;;;5026009;28;20310;-56
2022/08/03 02:10:20;;;;;;;;;;;;;;;;;;5043537;28;19928;-56
2022/08/03 02:12:46;;;;;;;;;;;;;;;;;;5043498;28;19925;-56
2022/08/03 02:15:12;;;;;;;;;;;;;;;;;;5042874;28;20042;-56
2022/08/03 02:17:38;;;;;;;;;;;;;;;;;;5043903;28;20043;-56
2022/08/03 02:20:04;;;;;;;;;;;;;;;;;;5044474;28;19968;-56
2022/08/03 02:22:30;;;;;;;;;;;;;;;;;;5047045;28;20015;-57
2022/08/03 02:24:56;;;;;;;;;;;;;;;;;;5046900;28;19921;-56
2022/08/03 02:27:23;;;;;;;;;;;;;;;;;;5046985;28;19925;-56
2022/08/03 02:29:49;;;;;;;;;;;;;;;;;;5046253;28;19933;-56
2022/08/03 02:32:15;;;;;;;;;;;;;;;;;;5046456;28;19924;-56
2022/08/03 02:34:41;;;;;;;;;;;;;;;;;;5046111;28;19955;-56
2022/08/03 02:37:07;;;;;;;;;;;;;;;;;;5046996;28;19925;-56
2022/08/03 02:39:33;;;;;;;;;;;;;;;;;;5046884;28;20420;-56
2022/08/03 02:42:05;;;;;;;;;;;;;;;;;;5046592;28;19929;-56
2022/08/03 02:44:31;;;;;;;;;;;;;;;;;;5045915;28;20585;-56
2022/08/03 02:46:57;;;;;;;;;;;;;;;;;;5038928;28;19947;-56
2022/08/03 02:49:23;;;;;;;;;;;;;;;;;;5036177;28;19925;-56
2022/08/03 02:51:49;;;;;;;;;;;;;;;;;;5035263;28;19945;-56
2022/08/03 02:54:15;;;;;;;;;;;;;;;;;;5029200;28;20611;-56
2022/08/03 02:56:41;;;;;;;;;;;;;;;;;;5027453;28;19932;-57
2022/08/03 02:59:07;;;;;;;;;;;;;;;;;;5045831;28;20344;-56
2022/08/03 03:01:33;;;;;;;;;;;;;;;;;;5045897;28;19948;-56
2022/08/03 03:03:59;;;;;;;;;;;;;;;;;;5046595;28;20270;-56
2022/08/03 03:06:26;;;;;;;;;;;;;;;;;;5045896;28;20464;-56
2022/08/03 03:08:51;;;;;;;;;;;;;;;;;;5046206;28;20306;-56
2022/08/03 03:11:17;;;;;;;;;;;;;;;;;;5046131;28;19921;-56
2022/08/03 03:13:43;;;;;;;;;;;;;;;;;;5045281;28;19925;-56
2022/08/03 03:16:10;;;;;;;;;;;;;;;;;;5045666;28;19932;-57
2022/08/03 03:18:36;;;;;;;;;;;;;;;;;;5046270;28;19921;-57
2022/08/03 03:21:01;;;;;;;;;;;;;;;;;;5045919;28;19955;-56
2022/08/03 03:23:28;;;;;;;;;;;;;;;;;;5046071;28;19921;-56
2022/08/03 03:25:54;;;;;;;;;;;;;;;;;;5045944;28;19929;-56
2022/08/03 03:28:20;;;;;;;;;;;;;;;;;;5044857;28;19925;-56
2022/08/03 03:30:46;;;;;;;;;;;;;;;;;;5045225;28;19944;-56
2022/08/03 03:33:12;;;;;;;;;;;;;;;;;;5045250;28;20737;-56
2022/08/03 03:35:38;;;;;;;;;;;;;;;;;;5045890;28;19932;-56
2022/08/03 03:38:04;;;;;;;;;;;;;;;;;;5045911;28;19932;-56
2022/08/03 03:40:30;;;;;;;;;;;;;;;;;;5045713;28;19944;-56
2022/08/03 03:42:56;;;;;;;;;;;;;;;;;;5045652;28;19955;-56
2022/08/03 03:45:22;;;;;;;;;;;;;;;;;;5044342;28;19924;-56
2022/08/03 03:47:48;;;;;;;;;;;;;;;;;;5045484;28;19928;-56
2022/08/03 03:50:14;;;;;;;;;;;;;;;;;;5044924;28;19932;-56
2022/08/03 03:52:40;;;;;;;;;;;;;;;;;;5045571;28;19925;-57
2022/08/03 03:55:06;;;;;;;;;;;;;;;;;;5045754;28;19975;-56
2022/08/03 03:57:32;;;;;;;;;;;;;;;;;;5044718;28;19968;-56
2022/08/03 03:59:58;;;;;;;;;;;;;;;;;;5044557;28;19968;-56
2022/08/03 04:02:24;;;;;;;;;;;;;;;;;;5044902;28;20526;-56
2022/08/03 04:13:04;;;;;;;;;;;;;;;;;;5044266;28;19967;-56
2022/08/03 04:15:30;;;;;;;;;;;;;;;;;;5044235;28;19971;-56
2022/08/03 04:17:57;;;;;;;;;;;;;;;;;;5044831;28;19925;-56
2022/08/03 04:20:23;;;;;;;;;;;;;;;;;;5044545;28;19935;-56
2022/08/03 04:22:49;;;;;;;;;;;;;;;;;;5044870;28;19955;-56
2022/08/03 04:25:16;;;;;;;;;;;;;;;;;;5044631;28;19924;-56
2022/08/03 04:27:42;;;;;;;;;;;;;;;;;;5044602;28;19929;-56
2022/08/03 04:30:09;;;;;;;;;;;;;;;;;;5043931;28;19931;-57
2022/08/03 04:32:35;;;;;;;;;;;;;;;;;;5044832;28;19920;-56
2022/08/03 04:35:01;;;;;;;;;;;;;;;;;;5044379;28;20275;-56
2022/08/03 04:37:27;;;;;;;;;;;;;;;;;;5044538;28;19925;-56
2022/08/03 04:39:53;;;;;;;;;;;;;;;;;;5043681;28;19971;-56
2022/08/03 04:42:18;;;;;;;;;;;;;;;;;;5043604;28;20347;-56
2022/08/03 04:44:44;;;;;;;;;;;;;;;;;;5043663;28;19927;-56
2022/08/03 04:47:11;;;;;;;;;;;;;;;;;;5044173;28;19956;-57
2022/08/03 04:49:37;;;;;;;;;;;;;;;;;;5044914;28;19971;-56
2022/08/03 04:52:03;;;;;;;;;;;;;;;;;;5044748;28;19927;-56
2022/08/03 04:54:29;;;;;;;;;;;;;;;;;;5044225;28;20389;-56
2022/08/03 04:56:55;;;;;;;;;;;;;;;;;;5044074;28;19925;-56
2022/08/03 04:59:21;;;;;;;;;;;;;;;;;;5042924;28;19925;-56
2022/08/03 05:01:47;;;;;;;;;;;;;;;;;;5044370;28;19983;-56
2022/08/03 05:04:13;;;;;;;;;;;;;;;;;;5043832;28;20363;-56
2022/08/03 05:06:39;;;;;;;;;;;;;;;;;;5044255;28;19925;-56
2022/08/03 05:09:06;;;;;;;;;;;;;;;;;;5044646;28;19986;-56
2022/08/03 05:11:32;;;;;;;;;;;;;;;;;;5043593;28;20020;-56
2022/08/03 05:13:58;;;;;;;;;;;;;;;;;;5042910;28;20360;-56
2022/08/03 05:16:24;;;;;;;;;;;;;;;;;;5043994;28;19970;-56
2022/08/03 05:18:50;;;;;;;;;;;;;;;;;;5044151;28;19925;-56
2022/08/03 05:21:16;;;;;;;;;;;;;;;;;;5043723;28;19925;-56
2022/08/03 05:23:42;;;;;;;;;;;;;;;;;;5044019;28;19947;-56
2022/08/03 05:26:10;;;;;;;;;;;;;;;;;;5044228;28;19950;-56
2022/08/03 05:28:36;;;;;;;;;;;;;;;;;;5043797;28;19925;-56
2022/08/03 05:31:02;;;;;;;;;;;;;;;;;;5026357;28;19940;-56
2022/08/03 05:33:28;;;;;;;;;;;;;;;;;;5043514;28;19924;-57
2022/08/03 05:35:54;;;;;;;;;;;;;;;;;;5044000;28;20380;-56
2022/08/03 05:38:20;;;;;;;;;;;;;;;;;;5043810;28;19925;-56
2022/08/03 05:40:46;;;;;;;;;;;;;;;;;;5043457;28;20709;-56
2022/08/03 05:43:12;;;;;;;;;;;;;;;;;;5043219;28;19940;-56
2022/08/03 05:45:38;;;;;;;;;;;;;;;;;;5044438;28;19955;-56
2022/08/03 05:48:04;;;;;;;;;;;;;;;;;;5044355;28;19925;-56
2022/08/03 05:50:30;;;;;;;;;;;;;;;;;;5043613;28;19924;-56
2022/08/03 05:52:56;;;;;;;;;;;;;;;;;;5043783;28;19932;-56
2022/08/03 05:55:22;;;;;;;;;;;;;;;;;;5046756;28;19970;-56
2022/08/03 05:57:48;;;;;;;;;;;;;;;;;;5047184;28;20371;-57
2022/08/03 06:00:14;;;;;;;;;;;;;;;;;;5047301;28;19950;-56
2022/08/03 06:02:41;;;;;;;;;;;;;;;;;;5044362;28;20295;-57
2022/08/03 06:05:07;;;;;;;;;;;;;;;;;;5036060;28;19972;-56
2022/08/03 06:07:33;;;;;;;;;;;;;;;;;;5042542;28;19925;-56
2022/08/03 06:10:01;;;;;;;;;;;;;;;;;;5046438;28;20395;-56
2022/08/03 06:12:27;;;;;;;;;;;;;;;;;;5043142;28;19926;-56
2022/08/03 06:14:53;;;;;;;;;;;;;;;;;;5026725;28;19929;-56
2022/08/03 06:17:19;;;;;;;;;;;;;;;;;;5027194;28;19931;-55
2022/08/03 06:19:45;;;;;;;;;;;;;;;;;;5029481;28;21317;-56
2022/08/03 06:22:11;;;;;;;;;;;;;;;;;;5028136;28;20314;-56
2022/08/03 06:24:37;;;;;;;;;;;;;;;;;;5033452;28;20720;-56
2022/08/03 06:27:03;;;;;;;;;;;;;;;;;;5038138;28;19929;-56
2022/08/03 06:29:29;;;;;;;;;;;;;;;;;;5026373;28;19991;-56
2022/08/03 06:31:55;;;;;;;;;;;;;;;;;;5027239;28;19976;-56
2022/08/03 06:34:21;;;;;;;;;;;;;;;;;;5031599;28;20460;-56
2022/08/03 06:36:49;;;;;;;;;;;;;;;;;;5034914;28;19929;-56
2022/08/03 06:39:16;;;;;;;;;;;;;;;;;;5031628;28;19925;-57
2022/08/03 06:41:42;;;;;;;;;;;;;;;;;;5038411;28;19932;-57
2022/08/03 06:44:08;;;;;;;;;;;;;;;;;;5035596;28;19925;-56
2022/08/03 06:46:34;;;;;;;;;;;;;;;;;;5034564;28;19928;-56
2022/08/03 06:49:00;;;;;;;;;;;;;;;;;;5037006;28;19931;-56
2022/08/03 06:51:26;;;;;;;;;;;;;;;;;;5035694;28;19926;-56
2022/08/03 06:53:52;;;;;;;;;;;;;;;;;;5039025;28;19924;-55
2022/08/03 06:56:19;;;;;;;;;;;;;;;;;;5036836;28;21170;-56
2022/08/03 06:58:46;;;;;;;;;;;;;;;;;;5031944;28;19925;-56
2022/08/03 07:01:12;;;;;;;;;;;;;;;;;;5027320;28;19933;-56
2022/08/03 07:03:39;;;;;;;;;;;;;;;;;;5035806;28;19975;-56
2022/08/03 07:06:05;;;;;;;;;;;;;;;;;;5045678;28;19925;-56
2022/08/03 07:08:31;;;;;;;;;;;;;;;;;;5041287;28;19933;-57
2022/08/03 07:10:57;;;;;;;;;;;;;;;;;;5035721;28;19932;-56
2022/08/03 07:13:23;;;;;;;;;;;;;;;;;;5034804;28;19925;-56
2022/08/03 07:15:49;;;;;;;;;;;;;;;;;;5040936;28;20314;-56
2022/08/03 07:18:15;;;;;;;;;;;;;;;;;;5029807;28;20114;-56
2022/08/03 07:20:41;;;;;;;;;;;;;;;;;;5037195;28;19994;-56
2022/08/03 07:23:08;;;;;;;;;;;;;;;;;;5039374;28;20379;-56
2022/08/03 07:25:34;;;;;;;;;;;;;;;;;;5035781;28;19918;-57
2022/08/03 07:28:00;;;;;;;;;;;;;;;;;;5039662;28;19929;-56
2022/08/03 07:30:26;;;;;;;;;;;;;;;;;;5034370;28;19935;-55
2022/08/03 07:32:52;;;;;;;;;;;;;;;;;;5035499;28;19936;-55
2022/08/03 07:35:18;;;;;;;;;;;;;;;;;;5036724;28;19925;-56
2022/08/03 07:37:44;;;;;;;;;;;;;;;;;;5037754;28;19924;-56
2022/08/03 07:40:10;;;;;;;;;;;;;;;;;;5029693;28;20028;-56
2022/08/03 07:42:36;;;;;;;;;;;;;;;;;;5034773;28;19932;-56
2022/08/03 07:45:03;;;;;;;;;;;;;;;;;;5015596;28;19928;-56
2022/08/03 07:47:29;;;;;;;;;;;;;;;;;;5034471;28;19933;-55
2022/08/03 07:49:55;;;;;;;;;;;;;;;;;;5035169;28;19929;-55
2022/08/03 07:55:06;;;;;;;;;;;;;;;;;;5037520;28;19987;-56
2022/08/03 07:57:32;;;;;;;;;;;;;;;;;;5039722;28;20330;-55
2022/08/03 07:59:58;;;;;;;;;;;;;;;;;;5035659;28;19929;-56
2022/08/03 08:02:24;;;;;;;;;;;;;;;;;;5031233;28;19925;-56
2022/08/03 08:04:50;;;;;;;;;;;;;;;;;;5033785;28;19983;-56
2022/08/03 08:07:16;;;;;;;;;;;;;;;;;;5033204;28;20390;-56
2022/08/03 08:09:42;;;;;;;;;;;;;;;;;;5035918;28;19976;-56
2022/08/03 08:12:09;;;;;;;;;;;;;;;;;;5036046;28;19968;-56
2022/08/03 08:14:35;;;;;;;;;;;;;;;;;;5033830;28;19925;-55
2022/08/03 08:17:01;;;;;;;;;;;;;;;;;;5032050;28;19940;-56
2022/08/03 08:19:27;;;;;;;;;;;;;;;;;;5034401;28;19929;-56
2022/08/03 08:21:53;;;;;;;;;;;;;;;;;;5032900;28;19930;-56
2022/08/03 08:24:19;;;;;;;;;;;;;;;;;;5043039;28;20017;-56
2022/08/03 08:26:45;;;;;;;;;;;;;;;;;;5036444;28;19929;-56
2022/08/03 08:29:11;;;;;;;;;;;;;;;;;;5029289;28;19925;-56
2022/08/03 08:31:37;;;;;;;;;;;;;;;;;;5033846;28;19925;-55
2022/08/03 08:34:04;;;;;;;;;;;;;;;;;;5024196;28;20354;-56
2022/08/03 08:36:30;;;;;;;;;;;;;;;;;;5024423;28;19979;-55
2022/08/03 08:38:56;;;;;;;;;;;;;;;;;;5024623;28;19925;-55
2022/08/03 08:41:22;;;;;;;;;;;;;;;;;;5032161;28;20414;-56
2022/08/03 08:43:48;;;;;;;;;;;;;;;;;;5032966;28;20015;-56
2022/08/03 08:46:14;;;;;;;;;;;;;;;;;;5031368;28;19932;-56
2022/08/03 08:48:40;;;;;;;;;;;;;;;;;;5030887;28;19925;-56
2022/08/03 08:51:06;;;;;;;;;;;;;;;;;;5032404;28;19983;-55
2022/08/03 08:53:34;;;;;;;;;;;;;;;;;;5031836;28;20233;-55
2022/08/03 08:56:00;;;;;;;;;;;;;;;;;;5030781;28;19937;-56
2022/08/03 08:58:26;;;;;;;;;;;;;;;;;;5031791;28;20004;-56
2022/08/03 09:00:52;;;;;;;;;;;;;;;;;;5030970;28;20023;-56
2022/08/03 09:03:18;;;;;;;;;;;;;;;;;;5018119;28;20479;-56
2022/08/03 09:05:44;;;;;;;;;;;;;;;;;;5033257;28;20020;-57
2022/08/03 09:08:10;;;;;;;;;;;;;;;;;;5037481;28;19932;-57
2022/08/03 09:10:36;;;;;;;;;;;;;;;;;;5036911;28;19925;-56
2022/08/03 09:13:02;;;;;;;;;;;;;;;;;;5033220;28;19925;-56
2022/08/03 09:15:30;;;;;;;;;;;;;;;;;;5036176;28;19951;-56
2022/08/03 09:17:56;;;;;;;;;;;;;;;;;;5035878;28;19932;-57
2022/08/03 09:20:22;;;;;;;;;;;;;;;;;;5037145;28;19955;-57
2022/08/03 09:22:48;;;;;;;;;;;;;;;;;;5030739;28;19925;-56
2022/08/03 09:25:14;;;;;;;;;;;;;;;;;;5038584;28;19925;-56
2022/08/03 09:27:40;;;;;;;;;;;;;;;;;;5029767;28;20225;-57
2022/08/03 09:30:06;;;;;;;;;;;;;;;;;;5034913;28;20062;-57
2022/08/03 09:32:32;;;;;;;;;;;;;;;;;;5035984;28;20406;-56
2022/08/03 09:34:58;;;;;;;;;;;;;;;;;;5038646;28;20023;-56
2022/08/03 09:37:25;;;;;;;;;;;;;;;;;;5038188;28;20035;-56
2022/08/03 09:39:50;;;;;;;;;;;;;;;;;;5043102;28;19950;-56
2022/08/03 09:42:16;;;;;;;;;;;;;;;;;;5040826;28;20371;-56
2022/08/03 09:44:42;;;;;;;;;;;;;;;;;;5038956;28;19933;-56
2022/08/03 09:47:09;;;;;;;;;;;;;;;;;;5042909;28;19932;-57
2022/08/03 09:49:35;;;;;;;;;;;;;;;;;;5041841;28;19924;-56
2022/08/03 09:52:02;;;;;;;;;;;;;;;;;;5044302;28;19931;-56
2022/08/03 09:54:28;;;;;;;;;;;;;;;;;;5041686;28;19933;-56
2022/08/03 09:56:54;;;;;;;;;;;;;;;;;;5043402;28;19928;-56
2022/08/03 09:59:20;;;;;;;;;;;;;;;;;;5042789;28;19929;-56
2022/08/03 10:01:46;;;;;;;;;;;;;;;;;;5040715;28;19926;-56
2022/08/03 10:04:12;;;;;;;;;;;;;;;;;;5043713;28;20550;-56
2022/08/03 10:06:38;;;;;;;;;;;;;;;;;;5042496;28;19933;-58
2022/08/03 10:09:05;;;;;;;;;;;;;;;;;;5041883;28;19945;-56
2022/08/03 10:11:33;;;;;;;;;;;;;;;;;;5042868;28;19925;-56
2022/08/03 10:14:00;;;;;;;;;;;;;;;;;;5042823;28;19928;-56
2022/08/03 10:16:26;;;;;;;;;;;;;;;;;;5039985;28;19924;-56
2022/08/03 10:18:52;;;;;;;;;;;;;;;;;;5039850;28;20630;-56
2022/08/03 10:21:18;;;;;;;;;;;;;;;;;;5039196;28;20016;-56
2022/08/03 10:23:44;;;;;;;;;;;;;;;;;;5040200;28;19924;-56
2022/08/03 10:26:10;;;;;;;;;;;;;;;;;;5042509;28;20338;-57
2022/08/03 10:28:36;;;;;;;;;;;;;;;;;;5036174;28;19948;-56
2022/08/03 10:31:02;;;;;;;;;;;;;;;;;;5037145;28;19925;-56
2022/08/03 10:33:28;;;;;;;;;;;;;;;;;;5037030;28;19932;-56
2022/08/03 10:35:54;;;;;;;;;;;;;;;;;;5038816;28;19926;-56
2022/08/03 10:38:20;;;;;;;;;;;;;;;;;;5036914;28;19928;-57
2022/08/03 10:40:46;;;;;;;;;;;;;;;;;;5036742;28;19925;-57
2022/08/03 10:43:12;;;;;;;;;;;;;;;;;;5035127;28;19980;-57
2022/08/03 10:45:38;;;;;;;;;;;;;;;;;;5037581;28;19917;-56
2022/08/03 10:48:04;;;;;;;;;;;;;;;;;;5037692;28;20127;-56
2022/08/03 10:50:30;;;;;;;;;;;;;;;;;;5035879;28;19956;-56
2022/08/03 10:52:56;;;;;;;;;;;;;;;;;;5037277;28;20434;-57
2022/08/03 10:58:06;;;;;;;;;;;;;;;;;;5037085;28;19925;-57
2022/08/03 11:00:32;;;;;;;;;;;;;;;;;;5032325;28;19931;-55
2022/08/03 11:02:58;;;;;;;;;;;;;;;;;;5027053;28;19926;-56
2022/08/03 11:05:25;;;;;;;;;;;;;;;;;;5026289;28;19925;-56
2022/08/03 11:07:51;;;;;;;;;;;;;;;;;;5027097;28;19951;-57
2022/08/03 11:10:17;;;;;;;;;;;;;;;;;;5026502;28;20418;-56
2022/08/03 11:12:43;;;;;;;;;;;;;;;;;;5025867;28;19932;-57
2022/08/03 11:15:09;;;;;;;;;;;;;;;;;;5026730;28;19971;-56
2022/08/03 11:17:35;;;;;;;;;;;;;;;;;;5026536;28;19933;-57
2022/08/03 11:20:01;;;;;;;;;;;;;;;;;;5026470;28;19925;-57
2022/08/03 11:22:27;;;;;;;;;;;;;;;;;;5026397;28;20114;-57
2022/08/03 11:24:55;;;;;;;;;;;;;;;;;;5026756;28;19978;-57
2022/08/03 11:27:21;;;;;;;;;;;;;;;;;;5027556;28;19933;-57
2022/08/03 11:29:47;;;;;;;;;;;;;;;;;;5033546;28;20485;-57
2022/08/03 11:32:13;;;;;;;;;;;;;;;;;;5033438;28;20013;-58
2022/08/03 11:34:39;;;;;;;;;;;;;;;;;;5035926;28;19929;-58
2022/08/03 11:37:05;;;;;;;;;;;;;;;;;;5035354;28;20298;-57
2022/08/03 11:39:31;;;;;;;;;;;;;;;;;;5037275;28;19928;-57
2022/08/03 11:41:57;;;;;;;;;;;;;;;;;;5036573;28;19926;-57
2022/08/03 11:44:23;;;;;;;;;;;;;;;;;;5034423;28;19924;-57
2022/08/03 11:46:49;;;;;;;;;;;;;;;;;;5032480;28;20303;-57
2022/08/03 11:49:15;;;;;;;;;;;;;;;;;;5032437;28;20375;-56
2022/08/03 11:51:41;;;;;;;;;;;;;;;;;;5039668;28;20378;-57
2022/08/03 11:54:07;;;;;;;;;;;;;;;;;;5043253;28;20363;-57
2022/08/03 11:56:33;;;;;;;;;;;;;;;;;;5045732;28;20464;-57
2022/08/03 11:58:59;;;;;;;;;;;;;;;;;;5045071;28;20002;-57
2022/08/03 12:01:25;;;;;;;;;;;;;;;;;;5045278;28;19932;-57
2022/08/03 12:03:51;;;;;;;;;;;;;;;;;;5045145;28;20323;-57
2022/08/03 12:06:17;;;;;;;;;;;;;;;;;;5044883;28;19931;-57
2022/08/03 12:08:43;;;;;;;;;;;;;;;;;;5045631;28;19925;-57
2022/08/03 12:11:09;;;;;;;;;;;;;;;;;;5045444;28;19932;-57
2022/08/03 12:13:35;;;;;;;;;;;;;;;;;;5044642;28;19925;-57
2022/08/03 12:16:01;;;;;;;;;;;;;;;;;;5045364;28;19925;-57
2022/08/03 12:18:27;;;;;;;;;;;;;;;;;;5045135;28;19971;-57
2022/08/03 12:20:53;;;;;;;;;;;;;;;;;;5045677;28;19925;-57
2022/08/03 12:23:19;;;;;;;;;;;;;;;;;;5045182;28;19975;-57
2022/08/03 12:25:45;;;;;;;;;;;;;;;;;;5045042;28;19925;-56
2022/08/03 12:28:11;;;;;;;;;;;;;;;;;;5044627;28;19940;-58
2022/08/03 12:30:37;;;;;;;;;;;;;;;;;;5045180;28;19924;-57
2022/08/03 12:33:03;;;;;;;;;;;;;;;;;;5044775;28;19925;-57
2022/08/03 12:35:29;;;;;;;;;;;;;;;;;;5044937;28;19997;-58
2022/08/03 12:37:57;;;;;;;;;;;;;;;;;;5044733;28;19976;-57
2022/08/03 12:40:23;;;;;;;;;;;;;;;;;;5045023;28;19979;-58
2022/08/03 12:42:49;;;;;;;;;;;;;;;;;;5044539;28;19975;-58
2022/08/03 12:45:15;;;;;;;;;;;;;;;;;;5044755;28;20070;-58
2022/08/03 12:47:41;;;;;;;;;;;;;;;;;;5044872;28;20382;-58
2022/08/03 12:50:07;;;;;;;;;;;;;;;;;;5045104;28;19925;-58
2022/08/03 12:52:33;;;;;;;;;;;;;;;;;;5044722;28;19932;-59
2022/08/03 12:54:59;;;;;;;;;;;;;;;;;;5044761;28;19935;-58
2022/08/03 12:57:25;;;;;;;;;;;;;;;;;;5044026;28;19925;-58
2022/08/03 12:59:54;;;;;;;;;;;;;;;;;;5044653;28;19990;-58
2022/08/03 13:02:20;;;;;;;;;;;;;;;;;;5027130;28;19925;-58
2022/08/03 13:04:46;;;;;;;;;;;;;;;;;;5044134;28;19927;-58
2022/08/03 13:07:12;;;;;;;;;;;;;;;;;;5044109;28;19975;-58
2022/08/03 13:09:38;;;;;;;;;;;;;;;;;;5044734;28;19976;-57
2022/08/03 13:12:05;;;;;;;;;;;;;;;;;;5043302;28;20003;-57
2022/08/03 13:14:31;;;;;;;;;;;;;;;;;;5044335;28;19978;-57
2022/08/03 13:16:57;;;;;;;;;;;;;;;;;;5044464;28;20803;-57
2022/08/03 13:19:23;;;;;;;;;;;;;;;;;;5044513;28;19932;-57
2022/08/03 13:21:49;;;;;;;;;;;;;;;;;;5044681;28;19976;-57
2022/08/03 13:24:15;;;;;;;;;;;;;;;;;;5043683;28;19984;-58
2022/08/03 13:26:41;;;;;;;;;;;;;;;;;;5043593;28;20863;-58
2022/08/03 13:29:07;;;;;;;;;;;;;;;;;;5044972;28;19981;-58
2022/08/03 13:31:33;;;;;;;;;;;;;;;;;;5044041;28;20035;-58
2022/08/03 13:33:59;;;;;;;;;;;;;;;;;;5043579;28;19951;-58
2022/08/03 13:36:26;;;;;;;;;;;;;;;;;;5044206;28;19925;-58
2022/08/03 13:38:52;;;;;;;;;;;;;;;;;;5044593;28;19929;-58
2022/08/03 13:41:18;;;;;;;;;;;;;;;;;;5044114;28;19935;-58
2022/08/03 13:43:44;;;;;;;;;;;;;;;;;;5043478;28;19925;-58
2022/08/03 13:46:10;;;;;;;;;;;;;;;;;;5043615;28;19928;-58
2022/08/03 13:48:36;;;;;;;;;;;;;;;;;;5044591;28;19925;-58
2022/08/03 13:51:02;;;;;;;;;;;;;;;;;;5044368;28;19925;-58
2022/08/03 13:53:28;;;;;;;;;;;;;;;;;;5044061;28;19924;-57
2022/08/03 13:55:54;;;;;;;;;;;;;;;;;;5044203;28;20413;-58
2022/08/03 13:58:20;;;;;;;;;;;;;;;;;;5042673;28;19925;-58
2022/08/03 14:00:46;;;;;;;;;;;;;;;;;;5044288;28;19932;-58
2022/08/03 14:03:12;;;;;;;;;;;;;;;;;;5044065;28;19925;-59
2022/08/03 14:05:39;;;;;;;;;;;;;;;;;;5044549;28;20290;-58
2022/08/03 14:08:05;;;;;;;;;;;;;;;;;;5044500;28;19986;-58
2022/08/03 14:10:31;;;;;;;;;;;;;;;;;;5041420;28;19932;-58
2022/08/03 14:12:59;;;;;;;;;;;;;;;;;;5026165;28;19925;-58
2022/08/03 14:15:25;;;;;;;;;;;;;;;;;;5035712;28;20290;-58
2022/08/03 14:17:51;;;;;;;;;;;;;;;;;;5037917;28;20038;-58
2022/08/03 14:20:17;;;;;;;;;;;;;;;;;;5035247;28;20939;-58
2022/08/03 14:22:43;;;;;;;;;;;;;;;;;;5038036;28;20019;-58
2022/08/03 14:25:09;;;;;;;;;;;;;;;;;;5037281;28;19964;-59
2022/08/03 14:27:35;;;;;;;;;;;;;;;;;;5017606;28;19932;-58
2022/08/03 14:30:02;;;;;;;;;;;;;;;;;;5038146;28;19939;-58
2022/08/03 14:32:28;;;;;;;;;;;;;;;;;;5036639;28;19925;-58
2022/08/03 14:34:54;;;;;;;;;;;;;;;;;;5037073;28;19932;-58
2022/08/03 14:37:20;;;;;;;;;;;;;;;;;;5037880;28;19951;-58
2022/08/03 14:39:46;;;;;;;;;;;;;;;;;;5036506;28;20394;-59
2022/08/03 14:42:12;;;;;;;;;;;;;;;;;;5035341;28;19932;-59
2022/08/03 14:44:38;;;;;;;;;;;;;;;;;;5019664;28;19936;-59
2022/08/03 14:47:04;;;;;;;;;;;;;;;;;;5036832;28;19925;-59
2022/08/03 14:49:30;;;;;;;;;;;;;;;;;;5036210;28;19925;-59
2022/08/03 14:51:56;;;;;;;;;;;;;;;;;;5043564;28;19925;-59
2022/08/03 14:54:22;;;;;;;;;;;;;;;;;;5046486;28;20356;-59
2022/08/03 14:56:48;;;;;;;;;;;;;;;;;;5045557;28;19925;-58
2022/08/03 14:59:14;;;;;;;;;;;;;;;;;;5046720;28;19928;-58
2022/08/03 15:01:40;;;;;;;;;;;;;;;;;;5047026;28;20635;-59
2022/08/03 15:04:06;;;;;;;;;;;;;;;;;;5047469;28;19951;-58
2022/08/03 15:06:32;;;;;;;;;;;;;;;;;;5045933;28;19925;-58
2022/08/03 15:08:58;;;;;;;;;;;;;;;;;;5046614;28;19928;-58
2022/08/03 15:11:24;;;;;;;;;;;;;;;;;;5045977;28;19932;-58
2022/08/03 15:13:51;;;;;;;;;;;;;;;;;;5046556;28;19925;-58
2022/08/03 15:16:17;;;;;;;;;;;;;;;;;;5046928;28;19925;-59
2022/08/03 15:18:43;;;;;;;;;;;;;;;;;;5046569;28;19951;-59
2022/08/03 15:21:09;;;;;;;;;;;;;;;;;;5046547;28;19921;-60
2022/08/03 15:23:35;;;;;;;;;;;;;;;;;;5047075;28;19975;-58
2022/08/03 15:26:01;;;;;;;;;;;;;;;;;;5045716;28;19916;-58
2022/08/03 15:28:27;;;;;;;;;;;;;;;;;;5045032;28;19929;-59
2022/08/03 15:30:53;;;;;;;;;;;;;;;;;;5045973;28;19928;-59
2022/08/03 15:33:19;;;;;;;;;;;;;;;;;;5045902;28;19923;-58
2022/08/03 15:35:46;;;;;;;;;;;;;;;;;;5046620;28;20015;-59
2022/08/03 15:38:12;;;;;;;;;;;;;;;;;;5045960;28;20374;-58
2022/08/03 15:40:38;;;;;;;;;;;;;;;;;;5046078;28;19937;-58
2022/08/03 15:43:05;;;;;;;;;;;;;;;;;;5045109;28;19948;-59
2022/08/03 15:45:31;;;;;;;;;;;;;;;;;;5045961;28;19970;-59
2022/08/03 15:47:57;;;;;;;;;;;;;;;;;;5045960;28;20007;-59
2022/08/03 15:50:23;;;;;;;;;;;;;;;;;;5045931;28;19920;-59
2022/08/03 15:52:49;;;;;;;;;;;;;;;;;;5041160;28;19925;-58
2022/08/03 15:55:15;;;;;;;;;;;;;;;;;;5035182;28;19925;-58
2022/08/03 15:57:41;;;;;;;;;;;;;;;;;;5033901;28;20015;-59
2022/08/03 16:00:07;;;;;;;;;;;;;;;;;;5034862;28;20006;-58
2022/08/03 16:02:34;;;;;;;;;;;;;;;;;;5035744;28;19932;-58
2022/08/03 16:05:00;;;;;;;;;;;;;;;;;;5038369;28;20669;-58
2022/08/03 16:07:42;;;;;;;;;;;;;;;;;;5045572;28;19924;-58
2022/08/03 16:10:08;;;;;;;;;;;;;;;;;;5045827;28;19925;-59
2022/08/03 16:12:34;;;;;;;;;;;;;;;;;;5044775;28;19925;-59
2022/08/03 16:15:01;;;;;;;;;;;;;;;;;;5044599;28;19925;-59
2022/08/03 16:17:27;;;;;;;;;;;;;;;;;;5045424;28;19925;-59
2022/08/03 16:19:53;;;;;;;;;;;;;;;;;;5045658;28;19935;-59
2022/08/03 16:22:19;;;;;;;;;;;;;;;;;;5045043;28;19948;-59
2022/08/03 16:24:45;;;;;;;;;;;;;;;;;;5045022;28;19947;-59
2022/08/03 16:27:11;;;;;;;;;;;;;;;;;;5044187;28;19921;-59
2022/08/03 16:29:37;;;;;;;;;;;;;;;;;;5045313;28;19971;-59
2022/08/03 16:32:07;;;;;;;;;;;;;;;;;;5027628;28;19921;-59
2022/08/03 16:34:33;;;;;;;;;;;;;;;;;;5044673;28;19956;-59
2022/08/03 16:36:59;;;;;;;;;;;;;;;;;;5044265;28;19928;-59
2022/08/03 16:39:25;;;;;;;;;;;;;;;;;;5043596;28;20275;-59
2022/08/03 16:41:51;;;;;;;;;;;;;;;;;;5044388;28;20404;-59
2022/08/03 16:44:17;;;;;;;;;;;;;;;;;;5043951;28;19925;-59
2022/08/03 16:46:43;;;;;;;;;;;;;;;;;;5045135;28;19970;-59
2022/08/03 16:49:09;;;;;;;;;;;;;;;;;;5044086;28;19987;-60
2022/08/03 16:51:37;;;;;;;;;;;;;;;;;;5027364;28;19929;-59